sensor_id;sensor_type;location;lat;lon;timestamp;P1;durP1;ratioP1;P2;durP2;ratioP2
21432;SDS011;18592;49.708;10.900;2022-09-03T00:00:54;2.65;;;1.05;;
21432;SDS011;18592;49.708;10.900;2022-09-03T00:02:59;1.33;;;1.20;;
21432;SDS011;18592;49.708;10.900;2022-09-03T00:07:45;1.35;;;1.00;;
21432;SDS011;18592;49.708;10.900;2022-09-03T00:09:49;1.50;;;1.00;;
21432;SDS011;18592;49.708;10.900;2022-09-03T00:12:01;1.48;;;0.98;;
21432;SDS011;18592;49.708;10.900;2022-09-03T00:14:12;1.80;;;1.27;;
21432;SDS011;18592;49.708;10.900;2022-09-03T00:16:20;1.60;;;1.10;;
21432;SDS011;18592;49.708;10.900;2022-09-03T00:18:26;1.83;;;0.98;;
21432;SDS011;18592;49.708;10.900;2022-09-03T00:22:42;2.08;;;1.00;;
21432;SDS011;18592;49.708;10.900;2022-09-03T00:24:49;0.95;;;0.82;;
21432;SDS011;18592;49.708;10.900;2022-09-03T00:26:54;1.00;;;0.90;;
21432;SDS011;18592;49.708;10.900;2022-09-03T00:29:12;1.15;;;0.90;;
21432;SDS011;18592;49.708;10.900;2022-09-03T00:31:21;1.38;;;0.90;;
21432;SDS011;18592;49.708;10.900;2022-09-03T00:33:28;3.42;;;1.10;;
21432;SDS011;18592;49.708;10.900;2022-09-03T00:38:05;0.90;;;0.80;;
21432;SDS011;18592;49.708;10.900;2022-09-03T00:40:09;1.08;;;0.90;;
21432;SDS011;18592;49.708;10.900;2022-09-03T00:44:37;1.60;;;1.10;;
21432;SDS011;18592;49.708;10.900;2022-09-03T00:49:48;1.00;;;0.90;;
21432;SDS011;18592;49.708;10.900;2022-09-03T00:52:04;0.77;;;0.77;;
21432;SDS011;18592;49.708;10.900;2022-09-03T00:54:25;1.77;;;1.00;;
21432;SDS011;18592;49.708;10.900;2022-09-03T00:56:45;1.35;;;1.02;;
21432;SDS011;18592;49.708;10.900;2022-09-03T01:01:17;2.83;;;1.20;;
21432;SDS011;18592;49.708;10.900;2022-09-03T01:03:40;2.05;;;1.10;;
21432;SDS011;18592;49.708;10.900;2022-09-03T01:08:19;1.17;;;1.00;;
21432;SDS011;18592;49.708;10.900;2022-09-03T01:13:08;1.55;;;1.00;;
21432;SDS011;18592;49.708;10.900;2022-09-03T01:22:08;1.67;;;1.20;;
21432;SDS011;18592;49.708;10.900;2022-09-03T01:24:44;1.70;;;1.17;;
21432;SDS011;18592;49.708;10.900;2022-09-03T01:27:08;1.17;;;1.08;;
21432;SDS011;18592;49.708;10.900;2022-09-03T01:29:19;1.70;;;1.13;;
21432;SDS011;18592;49.708;10.900;2022-09-03T01:34:19;2.13;;;1.20;;
21432;SDS011;18592;49.708;10.900;2022-09-03T01:36:38;1.25;;;1.10;;
21432;SDS011;18592;49.708;10.900;2022-09-03T01:39:00;1.25;;;1.15;;
21432;SDS011;18592;49.708;10.900;2022-09-03T01:41:13;2.08;;;1.20;;
21432;SDS011;18592;49.708;10.900;2022-09-03T01:44:13;2.00;;;1.30;;
21432;SDS011;18592;49.708;10.900;2022-09-03T01:46:39;1.45;;;1.10;;
21432;SDS011;18592;49.708;10.900;2022-09-03T01:49:46;1.63;;;1.10;;
21432;SDS011;18592;49.708;10.900;2022-09-03T01:51:18;1.52;;;1.20;;
21432;SDS011;18592;49.708;10.900;2022-09-03T01:53:30;2.28;;;1.50;;
21432;SDS011;18592;49.708;10.900;2022-09-03T02:00:11;1.00;;;0.90;;
21432;SDS011;18592;49.708;10.900;2022-09-03T02:02:21;2.33;;;1.02;;
21432;SDS011;18592;49.708;10.900;2022-09-03T02:04:26;1.58;;;1.00;;
21432;SDS011;18592;49.708;10.900;2022-09-03T02:06:29;1.40;;;1.23;;
21432;SDS011;18592;49.708;10.900;2022-09-03T02:08:32;2.17;;;1.30;;
21432;SDS011;18592;49.708;10.900;2022-09-03T02:12:43;1.83;;;1.40;;
21432;SDS011;18592;49.708;10.900;2022-09-03T02:14:56;1.38;;;1.10;;
21432;SDS011;18592;49.708;10.900;2022-09-03T02:16:58;1.45;;;1.10;;
21432;SDS011;18592;49.708;10.900;2022-09-03T02:19:05;2.05;;;1.02;;
21432;SDS011;18592;49.708;10.900;2022-09-03T02:21:12;1.98;;;1.17;;
21432;SDS011;18592;49.708;10.900;2022-09-03T02:23:20;1.10;;;1.00;;
21432;SDS011;18592;49.708;10.900;2022-09-03T02:25:29;2.10;;;1.45;;
21432;SDS011;18592;49.708;10.900;2022-09-03T02:27:39;1.10;;;1.00;;
21432;SDS011;18592;49.708;10.900;2022-09-03T02:29:41;1.10;;;0.93;;
21432;SDS011;18592;49.708;10.900;2022-09-03T02:31:43;2.05;;;1.23;;
21432;SDS011;18592;49.708;10.900;2022-09-03T02:33:46;3.15;;;1.23;;
21432;SDS011;18592;49.708;10.900;2022-09-03T02:35:49;1.50;;;1.08;;
21432;SDS011;18592;49.708;10.900;2022-09-03T02:37:54;2.15;;;1.33;;
21432;SDS011;18592;49.708;10.900;2022-09-03T02:39:56;1.42;;;1.10;;
21432;SDS011;18592;49.708;10.900;2022-09-03T02:42:00;1.23;;;1.13;;
21432;SDS011;18592;49.708;10.900;2022-09-03T02:46:27;1.20;;;1.10;;
21432;SDS011;18592;49.708;10.900;2022-09-03T02:48:34;2.20;;;1.30;;
21432;SDS011;18592;49.708;10.900;2022-09-03T02:50:39;1.23;;;1.00;;
21432;SDS011;18592;49.708;10.900;2022-09-03T02:52:42;1.33;;;1.10;;
21432;SDS011;18592;49.708;10.900;2022-09-03T02:54:45;1.50;;;1.40;;
21432;SDS011;18592;49.708;10.900;2022-09-03T02:56:47;1.88;;;1.08;;
21432;SDS011;18592;49.708;10.900;2022-09-03T02:58:50;1.52;;;0.98;;
21432;SDS011;18592;49.708;10.900;2022-09-03T03:00:51;1.30;;;1.20;;
21432;SDS011;18592;49.708;10.900;2022-09-03T03:02:54;1.27;;;1.10;;
21432;SDS011;18592;49.708;10.900;2022-09-03T03:04:56;2.80;;;1.00;;
21432;SDS011;18592;49.708;10.900;2022-09-03T03:07:00;2.35;;;1.20;;
21432;SDS011;18592;49.708;10.900;2022-09-03T03:09:01;2.13;;;1.17;;
21432;SDS011;18592;49.708;10.900;2022-09-03T03:11:08;1.25;;;1.10;;
21432;SDS011;18592;49.708;10.900;2022-09-03T03:13:10;1.85;;;1.20;;
21432;SDS011;18592;49.708;10.900;2022-09-03T03:15:12;1.20;;;1.10;;
21432;SDS011;18592;49.708;10.900;2022-09-03T03:17:15;1.40;;;1.02;;
21432;SDS011;18592;49.708;10.900;2022-09-03T03:19:17;1.25;;;1.08;;
21432;SDS011;18592;49.708;10.900;2022-09-03T03:21:18;1.42;;;1.20;;
21432;SDS011;18592;49.708;10.900;2022-09-03T03:23:21;2.25;;;1.10;;
21432;SDS011;18592;49.708;10.900;2022-09-03T03:25:26;1.85;;;1.30;;
21432;SDS011;18592;49.708;10.900;2022-09-03T03:27:28;2.50;;;1.20;;
21432;SDS011;18592;49.708;10.900;2022-09-03T03:29:30;1.50;;;1.10;;
21432;SDS011;18592;49.708;10.900;2022-09-03T03:31:31;2.42;;;1.20;;
21432;SDS011;18592;49.708;10.900;2022-09-03T03:33:34;1.40;;;1.30;;
21432;SDS011;18592;49.708;10.900;2022-09-03T03:35:39;1.25;;;1.13;;
21432;SDS011;18592;49.708;10.900;2022-09-03T03:37:49;1.38;;;1.27;;
21432;SDS011;18592;49.708;10.900;2022-09-03T03:39:51;1.55;;;1.33;;
21432;SDS011;18592;49.708;10.900;2022-09-03T03:41:53;1.10;;;1.00;;
21432;SDS011;18592;49.708;10.900;2022-09-03T03:43:57;2.85;;;1.20;;
21432;SDS011;18592;49.708;10.900;2022-09-03T03:46:00;2.10;;;1.33;;
21432;SDS011;18592;49.708;10.900;2022-09-03T03:48:02;2.55;;;1.38;;
21432;SDS011;18592;49.708;10.900;2022-09-03T03:50:04;1.42;;;1.33;;
21432;SDS011;18592;49.708;10.900;2022-09-03T03:52:06;3.58;;;1.50;;
21432;SDS011;18592;49.708;10.900;2022-09-03T03:54:08;1.45;;;1.17;;
21432;SDS011;18592;49.708;10.900;2022-09-03T03:56:10;2.15;;;1.33;;
21432;SDS011;18592;49.708;10.900;2022-09-03T03:58:16;1.38;;;1.27;;
21432;SDS011;18592;49.708;10.900;2022-09-03T04:00:18;1.77;;;1.40;;
21432;SDS011;18592;49.708;10.900;2022-09-03T04:02:19;1.40;;;1.30;;
21432;SDS011;18592;49.708;10.900;2022-09-03T04:04:21;1.27;;;1.17;;
21432;SDS011;18592;49.708;10.900;2022-09-03T04:06:25;1.75;;;1.50;;
21432;SDS011;18592;49.708;10.900;2022-09-03T04:08:28;2.10;;;1.15;;
21432;SDS011;18592;49.708;10.900;2022-09-03T04:10:33;2.13;;;1.48;;
21432;SDS011;18592;49.708;10.900;2022-09-03T04:12:34;2.53;;;1.35;;
21432;SDS011;18592;49.708;10.900;2022-09-03T04:14:36;3.50;;;1.40;;
21432;SDS011;18592;49.708;10.900;2022-09-03T04:16:38;1.85;;;1.10;;
21432;SDS011;18592;49.708;10.900;2022-09-03T04:18:40;1.85;;;1.40;;
21432;SDS011;18592;49.708;10.900;2022-09-03T04:20:42;1.40;;;1.30;;
21432;SDS011;18592;49.708;10.900;2022-09-03T04:22:46;1.90;;;1.27;;
21432;SDS011;18592;49.708;10.900;2022-09-03T04:24:52;1.77;;;1.25;;
21432;SDS011;18592;49.708;10.900;2022-09-03T04:26:54;1.98;;;1.45;;
21432;SDS011;18592;49.708;10.900;2022-09-03T04:28:56;1.38;;;1.02;;
21432;SDS011;18592;49.708;10.900;2022-09-03T04:31:01;2.20;;;1.10;;
21432;SDS011;18592;49.708;10.900;2022-09-03T04:33:14;2.13;;;1.50;;
21432;SDS011;18592;49.708;10.900;2022-09-03T04:35:16;1.52;;;1.30;;
21432;SDS011;18592;49.708;10.900;2022-09-03T04:37:18;2.05;;;1.30;;
21432;SDS011;18592;49.708;10.900;2022-09-03T04:39:20;2.70;;;1.17;;
21432;SDS011;18592;49.708;10.900;2022-09-03T04:41:23;1.25;;;1.13;;
21432;SDS011;18592;49.708;10.900;2022-09-03T04:43:29;1.70;;;1.60;;
21432;SDS011;18592;49.708;10.900;2022-09-03T04:45:31;2.95;;;1.42;;
21432;SDS011;18592;49.708;10.900;2022-09-03T04:47:33;2.67;;;1.63;;
21432;SDS011;18592;49.708;10.900;2022-09-03T04:49:37;2.15;;;1.30;;
21432;SDS011;18592;49.708;10.900;2022-09-03T04:51:40;2.20;;;1.58;;
21432;SDS011;18592;49.708;10.900;2022-09-03T04:53:43;1.50;;;1.40;;
21432;SDS011;18592;49.708;10.900;2022-09-03T04:55:49;1.60;;;1.50;;
21432;SDS011;18592;49.708;10.900;2022-09-03T04:57:51;1.95;;;1.20;;
21432;SDS011;18592;49.708;10.900;2022-09-03T04:59:58;2.00;;;1.48;;
21432;SDS011;18592;49.708;10.900;2022-09-03T05:02:00;2.28;;;1.38;;
21432;SDS011;18592;49.708;10.900;2022-09-03T05:04:03;1.85;;;1.42;;
21432;SDS011;18592;49.708;10.900;2022-09-03T05:06:05;1.98;;;1.60;;
21432;SDS011;18592;49.708;10.900;2022-09-03T05:08:08;1.52;;;1.33;;
21432;SDS011;18592;49.708;10.900;2022-09-03T05:10:10;2.47;;;1.33;;
21432;SDS011;18592;49.708;10.900;2022-09-03T05:12:16;1.73;;;1.45;;
21432;SDS011;18592;49.708;10.900;2022-09-03T05:14:19;1.60;;;1.50;;
21432;SDS011;18592;49.708;10.900;2022-09-03T05:16:21;1.40;;;1.30;;
21432;SDS011;18592;49.708;10.900;2022-09-03T05:18:24;3.22;;;1.52;;
21432;SDS011;18592;49.708;10.900;2022-09-03T05:20:25;1.83;;;1.63;;
21432;SDS011;18592;49.708;10.900;2022-09-03T05:22:27;1.50;;;1.40;;
21432;SDS011;18592;49.708;10.900;2022-09-03T05:24:29;1.65;;;1.50;;
21432;SDS011;18592;49.708;10.900;2022-09-03T05:26:32;2.53;;;1.70;;
21432;SDS011;18592;49.708;10.900;2022-09-03T05:28:39;2.20;;;1.75;;
21432;SDS011;18592;49.708;10.900;2022-09-03T05:30:42;1.92;;;1.70;;
21432;SDS011;18592;49.708;10.900;2022-09-03T05:32:46;1.90;;;1.70;;
21432;SDS011;18592;49.708;10.900;2022-09-03T05:34:47;3.30;;;1.75;;
21432;SDS011;18592;49.708;10.900;2022-09-03T05:36:56;3.53;;;1.63;;
21432;SDS011;18592;49.708;10.900;2022-09-03T05:39:00;3.08;;;1.70;;
21432;SDS011;18592;49.708;10.900;2022-09-03T05:41:05;2.45;;;1.67;;
21432;SDS011;18592;49.708;10.900;2022-09-03T05:43:08;2.30;;;1.58;;
21432;SDS011;18592;49.708;10.900;2022-09-03T05:45:10;4.18;;;1.70;;
21432;SDS011;18592;49.708;10.900;2022-09-03T05:47:12;2.33;;;1.75;;
21432;SDS011;18592;49.708;10.900;2022-09-03T05:49:14;3.15;;;1.88;;
21432;SDS011;18592;49.708;10.900;2022-09-03T05:51:16;1.70;;;1.58;;
21432;SDS011;18592;49.708;10.900;2022-09-03T05:53:19;2.42;;;1.70;;
21432;SDS011;18592;49.708;10.900;2022-09-03T05:55:21;3.05;;;1.80;;
21432;SDS011;18592;49.708;10.900;2022-09-03T05:57:25;2.25;;;1.67;;
21432;SDS011;18592;49.708;10.900;2022-09-03T05:59:27;3.85;;;2.30;;
21432;SDS011;18592;49.708;10.900;2022-09-03T06:01:30;4.95;;;2.47;;
21432;SDS011;18592;49.708;10.900;2022-09-03T06:03:34;4.03;;;2.85;;
21432;SDS011;18592;49.708;10.900;2022-09-03T06:05:37;4.25;;;2.67;;
21432;SDS011;18592;49.708;10.900;2022-09-03T06:07:38;4.47;;;2.33;;
21432;SDS011;18592;49.708;10.900;2022-09-03T06:09:40;2.33;;;1.90;;
21432;SDS011;18592;49.708;10.900;2022-09-03T06:11:42;2.45;;;1.95;;
21432;SDS011;18592;49.708;10.900;2022-09-03T06:13:46;3.00;;;1.70;;
21432;SDS011;18592;49.708;10.900;2022-09-03T06:15:48;1.98;;;1.63;;
21432;SDS011;18592;49.708;10.900;2022-09-03T06:17:50;2.42;;;1.88;;
21432;SDS011;18592;49.708;10.900;2022-09-03T06:19:52;2.70;;;1.70;;
21432;SDS011;18592;49.708;10.900;2022-09-03T06:21:53;2.10;;;1.48;;
21432;SDS011;18592;49.708;10.900;2022-09-03T06:23:58;1.92;;;1.50;;
21432;SDS011;18592;49.708;10.900;2022-09-03T06:28:07;1.75;;;1.50;;
21432;SDS011;18592;49.708;10.900;2022-09-03T06:30:09;3.83;;;1.73;;
21432;SDS011;18592;49.708;10.900;2022-09-03T06:32:12;3.22;;;1.70;;
21432;SDS011;18592;49.708;10.900;2022-09-03T06:34:14;3.85;;;1.75;;
21432;SDS011;18592;49.708;10.900;2022-09-03T06:36:19;1.60;;;1.50;;
21432;SDS011;18592;49.708;10.900;2022-09-03T06:38:22;2.38;;;1.58;;
21432;SDS011;18592;49.708;10.900;2022-09-03T06:40:24;2.60;;;1.65;;
21432;SDS011;18592;49.708;10.900;2022-09-03T06:42:26;2.17;;;1.48;;
21432;SDS011;18592;49.708;10.900;2022-09-03T06:44:29;1.88;;;1.30;;
21432;SDS011;18592;49.708;10.900;2022-09-03T06:46:31;1.50;;;1.30;;
21432;SDS011;18592;49.708;10.900;2022-09-03T06:48:39;2.35;;;1.58;;
21432;SDS011;18592;49.708;10.900;2022-09-03T06:50:42;1.55;;;1.40;;
21432;SDS011;18592;49.708;10.900;2022-09-03T06:52:44;3.40;;;1.38;;
21432;SDS011;18592;49.708;10.900;2022-09-03T06:54:45;2.65;;;1.20;;
21432;SDS011;18592;49.708;10.900;2022-09-03T06:56:51;1.48;;;1.27;;
21432;SDS011;18592;49.708;10.900;2022-09-03T06:58:54;1.83;;;1.30;;
21432;SDS011;18592;49.708;10.900;2022-09-03T07:01:03;1.58;;;1.30;;
21432;SDS011;18592;49.708;10.900;2022-09-03T07:03:07;1.17;;;1.00;;
21432;SDS011;18592;49.708;10.900;2022-09-03T07:05:08;1.90;;;1.27;;
21432;SDS011;18592;49.708;10.900;2022-09-03T07:07:10;2.13;;;1.33;;
21432;SDS011;18592;49.708;10.900;2022-09-03T07:09:14;3.25;;;1.35;;
21432;SDS011;18592;49.708;10.900;2022-09-03T07:11:20;2.15;;;1.50;;
21432;SDS011;18592;49.708;10.900;2022-09-03T07:13:26;1.40;;;1.15;;
21432;SDS011;18592;49.708;10.900;2022-09-03T07:15:28;1.83;;;1.38;;
21432;SDS011;18592;49.708;10.900;2022-09-03T07:17:31;2.10;;;1.20;;
21432;SDS011;18592;49.708;10.900;2022-09-03T07:19:33;2.35;;;1.20;;
21432;SDS011;18592;49.708;10.900;2022-09-03T07:21:36;1.52;;;1.17;;
21432;SDS011;18592;49.708;10.900;2022-09-03T07:23:53;1.65;;;1.10;;
21432;SDS011;18592;49.708;10.900;2022-09-03T07:25:57;1.77;;;0.93;;
21432;SDS011;18592;49.708;10.900;2022-09-03T07:28:00;3.15;;;1.30;;
21432;SDS011;18592;49.708;10.900;2022-09-03T07:30:13;2.17;;;1.00;;
21432;SDS011;18592;49.708;10.900;2022-09-03T07:32:15;1.42;;;1.08;;
21432;SDS011;18592;49.708;10.900;2022-09-03T07:34:17;3.92;;;1.30;;
21432;SDS011;18592;49.708;10.900;2022-09-03T07:36:19;1.20;;;1.10;;
21432;SDS011;18592;49.708;10.900;2022-09-03T07:38:20;1.42;;;1.30;;
21432;SDS011;18592;49.708;10.900;2022-09-03T07:40:26;1.33;;;1.08;;
21432;SDS011;18592;49.708;10.900;2022-09-03T07:42:27;2.10;;;1.30;;
21432;SDS011;18592;49.708;10.900;2022-09-03T07:44:40;1.88;;;1.20;;
21432;SDS011;18592;49.708;10.900;2022-09-03T07:46:41;2.03;;;1.25;;
21432;SDS011;18592;49.708;10.900;2022-09-03T07:50:58;4.10;;;1.20;;
21432;SDS011;18592;49.708;10.900;2022-09-03T07:53:04;2.30;;;1.00;;
21432;SDS011;18592;49.708;10.900;2022-09-03T07:55:05;3.08;;;1.20;;
21432;SDS011;18592;49.708;10.900;2022-09-03T07:57:07;2.10;;;1.13;;
21432;SDS011;18592;49.708;10.900;2022-09-03T07:59:09;1.75;;;1.30;;
21432;SDS011;18592;49.708;10.900;2022-09-03T08:01:16;1.25;;;1.10;;
21432;SDS011;18592;49.708;10.900;2022-09-03T08:03:24;1.50;;;1.15;;
21432;SDS011;18592;49.708;10.900;2022-09-03T08:05:29;1.90;;;1.15;;
21432;SDS011;18592;49.708;10.900;2022-09-03T08:07:32;1.25;;;1.00;;
21432;SDS011;18592;49.708;10.900;2022-09-03T08:09:37;1.80;;;1.10;;
21432;SDS011;18592;49.708;10.900;2022-09-03T08:11:43;1.13;;;1.00;;
21432;SDS011;18592;49.708;10.900;2022-09-03T08:13:47;1.10;;;1.00;;
21432;SDS011;18592;49.708;10.900;2022-09-03T08:15:54;2.22;;;1.10;;
21432;SDS011;18592;49.708;10.900;2022-09-03T08:17:57;2.08;;;1.30;;
21432;SDS011;18592;49.708;10.900;2022-09-03T08:20:04;2.03;;;1.00;;
21432;SDS011;18592;49.708;10.900;2022-09-03T08:22:05;1.17;;;0.93;;
21432;SDS011;18592;49.708;10.900;2022-09-03T08:24:07;2.42;;;1.10;;
21432;SDS011;18592;49.708;10.900;2022-09-03T08:26:10;3.35;;;1.10;;
21432;SDS011;18592;49.708;10.900;2022-09-03T08:28:13;2.47;;;1.02;;
21432;SDS011;18592;49.708;10.900;2022-09-03T08:30:14;1.95;;;1.13;;
21432;SDS011;18592;49.708;10.900;2022-09-03T08:32:16;1.38;;;1.00;;
21432;SDS011;18592;49.708;10.900;2022-09-03T08:34:18;1.42;;;1.08;;
21432;SDS011;18592;49.708;10.900;2022-09-03T08:36:27;1.63;;;1.45;;
21432;SDS011;18592;49.708;10.900;2022-09-03T08:38:32;2.25;;;1.20;;
21432;SDS011;18592;49.708;10.900;2022-09-03T08:40:35;1.55;;;1.10;;
21432;SDS011;18592;49.708;10.900;2022-09-03T08:42:40;1.98;;;1.15;;
21432;SDS011;18592;49.708;10.900;2022-09-03T08:44:55;3.45;;;1.02;;
21432;SDS011;18592;49.708;10.900;2022-09-03T08:47:04;2.40;;;1.10;;
21432;SDS011;18592;49.708;10.900;2022-09-03T08:49:32;2.72;;;1.05;;
21432;SDS011;18592;49.708;10.900;2022-09-03T08:52:06;2.45;;;1.00;;
21432;SDS011;18592;49.708;10.900;2022-09-03T08:54:24;3.35;;;1.10;;
21432;SDS011;18592;49.708;10.900;2022-09-03T08:56:32;2.30;;;1.13;;
21432;SDS011;18592;49.708;10.900;2022-09-03T08:58:44;1.23;;;0.93;;
21432;SDS011;18592;49.708;10.900;2022-09-03T09:05:59;2.10;;;1.30;;
21432;SDS011;18592;49.708;10.900;2022-09-03T09:08:17;2.40;;;1.10;;
21432;SDS011;18592;49.708;10.900;2022-09-03T09:10:36;1.35;;;1.10;;
21432;SDS011;18592;49.708;10.900;2022-09-03T09:12:58;2.55;;;1.17;;
21432;SDS011;18592;49.708;10.900;2022-09-03T09:22:17;1.63;;;1.10;;
21432;SDS011;18592;49.708;10.900;2022-09-03T09:24:34;1.45;;;1.20;;
21432;SDS011;18592;49.708;10.900;2022-09-03T09:27:01;2.30;;;1.10;;
21432;SDS011;18592;49.708;10.900;2022-09-03T09:29:06;1.20;;;1.10;;
21432;SDS011;18592;49.708;10.900;2022-09-03T09:31:14;1.23;;;1.10;;
21432;SDS011;18592;49.708;10.900;2022-09-03T09:33:19;2.10;;;1.35;;
21432;SDS011;18592;49.708;10.900;2022-09-03T09:35:22;1.75;;;1.33;;
21432;SDS011;18592;49.708;10.900;2022-09-03T09:37:24;1.52;;;1.10;;
21432;SDS011;18592;49.708;10.900;2022-09-03T09:39:25;1.50;;;1.00;;
21432;SDS011;18592;49.708;10.900;2022-09-03T09:41:32;1.50;;;1.40;;
21432;SDS011;18592;49.708;10.900;2022-09-03T09:43:34;1.65;;;1.20;;
21432;SDS011;18592;49.708;10.900;2022-09-03T09:45:37;1.70;;;1.30;;
21432;SDS011;18592;49.708;10.900;2022-09-03T09:47:41;1.20;;;1.10;;
21432;SDS011;18592;49.708;10.900;2022-09-03T09:51:47;1.25;;;1.15;;
21432;SDS011;18592;49.708;10.900;2022-09-03T09:56:24;1.42;;;1.02;;
21432;SDS011;18592;49.708;10.900;2022-09-03T09:58:26;1.20;;;1.10;;
21432;SDS011;18592;49.708;10.900;2022-09-03T10:00:34;1.60;;;1.27;;
21432;SDS011;18592;49.708;10.900;2022-09-03T10:02:38;3.47;;;1.20;;
21432;SDS011;18592;49.708;10.900;2022-09-03T10:04:47;1.23;;;1.05;;
21432;SDS011;18592;49.708;10.900;2022-09-03T10:06:58;2.80;;;1.30;;
21432;SDS011;18592;49.708;10.900;2022-09-03T10:09:10;1.20;;;1.00;;
21432;SDS011;18592;49.708;10.900;2022-09-03T10:11:17;2.17;;;1.45;;
21432;SDS011;18592;49.708;10.900;2022-09-03T10:13:34;1.77;;;1.20;;
21432;SDS011;18592;49.708;10.900;2022-09-03T10:15:50;2.90;;;1.30;;
21432;SDS011;18592;49.708;10.900;2022-09-03T10:20:28;1.92;;;1.17;;
21432;SDS011;18592;49.708;10.900;2022-09-03T10:22:55;1.10;;;1.00;;
21432;SDS011;18592;49.708;10.900;2022-09-03T10:25:05;1.60;;;1.35;;
21432;SDS011;18592;49.708;10.900;2022-09-03T10:27:09;1.83;;;1.40;;
21432;SDS011;18592;49.708;10.900;2022-09-03T10:29:17;1.27;;;1.00;;
21432;SDS011;18592;49.708;10.900;2022-09-03T10:33:33;1.60;;;1.17;;
21432;SDS011;18592;49.708;10.900;2022-09-03T10:36:01;1.30;;;1.17;;
21432;SDS011;18592;49.708;10.900;2022-09-03T10:38:21;1.15;;;0.95;;
21432;SDS011;18592;49.708;10.900;2022-09-03T10:40:35;1.17;;;1.08;;
21432;SDS011;18592;49.708;10.900;2022-09-03T10:52:15;2.05;;;1.38;;
21432;SDS011;18592;49.708;10.900;2022-09-03T10:54:27;1.23;;;1.13;;
21432;SDS011;18592;49.708;10.900;2022-09-03T10:58:58;1.40;;;1.10;;
21432;SDS011;18592;49.708;10.900;2022-09-03T11:08:51;1.15;;;1.08;;
21432;SDS011;18592;49.708;10.900;2022-09-03T11:11:20;1.65;;;1.20;;
21432;SDS011;18592;49.708;10.900;2022-09-03T11:16:03;1.65;;;0.95;;
21432;SDS011;18592;49.708;10.900;2022-09-03T11:21:07;1.73;;;1.00;;
21432;SDS011;18592;49.708;10.900;2022-09-03T11:23:13;1.27;;;1.17;;
21432;SDS011;18592;49.708;10.900;2022-09-03T11:25:17;1.20;;;1.10;;
21432;SDS011;18592;49.708;10.900;2022-09-03T11:29:52;2.40;;;1.40;;
21432;SDS011;18592;49.708;10.900;2022-09-03T11:32:01;2.05;;;1.35;;
21432;SDS011;18592;49.708;10.900;2022-09-03T11:34:13;1.60;;;1.50;;
21432;SDS011;18592;49.708;10.900;2022-09-03T11:36:34;1.45;;;1.35;;
21432;SDS011;18592;49.708;10.900;2022-09-03T11:38:38;2.97;;;1.40;;
21432;SDS011;18592;49.708;10.900;2022-09-03T11:41:27;1.15;;;1.00;;
21432;SDS011;18592;49.708;10.900;2022-09-03T11:47:42;1.45;;;1.15;;
21432;SDS011;18592;49.708;10.900;2022-09-03T11:49:46;1.27;;;1.17;;
21432;SDS011;18592;49.708;10.900;2022-09-03T11:52:01;1.60;;;1.20;;
21432;SDS011;18592;49.708;10.900;2022-09-03T11:54:23;2.00;;;1.25;;
21432;SDS011;18592;49.708;10.900;2022-09-03T11:56:26;1.95;;;1.50;;
21432;SDS011;18592;49.708;10.900;2022-09-03T11:58:31;1.40;;;1.30;;
21432;SDS011;18592;49.708;10.900;2022-09-03T12:00:35;7.82;;;1.50;;
21432;SDS011;18592;49.708;10.900;2022-09-03T12:02:46;1.33;;;1.10;;
21432;SDS011;18592;49.708;10.900;2022-09-03T12:05:06;1.95;;;1.25;;
21432;SDS011;18592;49.708;10.900;2022-09-03T12:09:46;1.88;;;1.40;;
21432;SDS011;18592;49.708;10.900;2022-09-03T12:12:01;1.60;;;1.50;;
21432;SDS011;18592;49.708;10.900;2022-09-03T12:18:48;1.95;;;1.20;;
21432;SDS011;18592;49.708;10.900;2022-09-03T12:23:01;1.45;;;1.30;;
21432;SDS011;18592;49.708;10.900;2022-09-03T12:25:13;1.55;;;1.33;;
21432;SDS011;18592;49.708;10.900;2022-09-03T12:27:18;2.35;;;1.40;;
21432;SDS011;18592;49.708;10.900;2022-09-03T12:29:28;2.00;;;1.40;;
21432;SDS011;18592;49.708;10.900;2022-09-03T12:31:32;2.17;;;1.30;;
21432;SDS011;18592;49.708;10.900;2022-09-03T12:33:47;1.88;;;1.50;;
21432;SDS011;18592;49.708;10.900;2022-09-03T12:35:59;2.15;;;1.42;;
21432;SDS011;18592;49.708;10.900;2022-09-03T12:38:02;3.58;;;1.40;;
21432;SDS011;18592;49.708;10.900;2022-09-03T12:40:17;1.75;;;1.50;;
21432;SDS011;18592;49.708;10.900;2022-09-03T12:42:26;2.55;;;1.52;;
21432;SDS011;18592;49.708;10.900;2022-09-03T12:46:36;1.70;;;1.60;;
21432;SDS011;18592;49.708;10.900;2022-09-03T12:48:38;2.67;;;1.75;;
21432;SDS011;18592;49.708;10.900;2022-09-03T12:50:46;1.77;;;1.67;;
21432;SDS011;18592;49.708;10.900;2022-09-03T12:53:23;1.73;;;1.58;;
21432;SDS011;18592;49.708;10.900;2022-09-03T12:55:35;1.80;;;1.70;;
21432;SDS011;18592;49.708;10.900;2022-09-03T12:57:51;1.50;;;1.40;;
21432;SDS011;18592;49.708;10.900;2022-09-03T13:00:05;3.15;;;2.10;;
21432;SDS011;18592;49.708;10.900;2022-09-03T13:02:13;2.10;;;1.90;;
21432;SDS011;18592;49.708;10.900;2022-09-03T13:04:23;2.13;;;1.65;;
21432;SDS011;18592;49.708;10.900;2022-09-03T13:06:33;1.80;;;1.70;;
21432;SDS011;18592;49.708;10.900;2022-09-03T13:08:46;1.88;;;1.77;;
21432;SDS011;18592;49.708;10.900;2022-09-03T13:10:52;2.15;;;1.98;;
21432;SDS011;18592;49.708;10.900;2022-09-03T13:12:57;2.83;;;1.73;;
21432;SDS011;18592;49.708;10.900;2022-09-03T13:15:09;2.03;;;1.83;;
21432;SDS011;18592;49.708;10.900;2022-09-03T13:17:29;2.15;;;1.90;;
21432;SDS011;18592;49.708;10.900;2022-09-03T13:22:15;1.95;;;1.65;;
21432;SDS011;18592;49.708;10.900;2022-09-03T13:29:01;3.03;;;1.70;;
21432;SDS011;18592;49.708;10.900;2022-09-03T13:31:25;4.43;;;2.05;;
21432;SDS011;18592;49.708;10.900;2022-09-03T13:33:46;2.25;;;1.90;;
21432;SDS011;18592;49.708;10.900;2022-09-03T13:35:59;2.80;;;1.83;;
21432;SDS011;18592;49.708;10.900;2022-09-03T13:40:46;1.88;;;1.77;;
21432;SDS011;18592;49.708;10.900;2022-09-03T13:45:38;2.17;;;1.80;;
21432;SDS011;18592;49.708;10.900;2022-09-03T13:50:18;2.47;;;1.98;;
21432;SDS011;18592;49.708;10.900;2022-09-03T13:52:33;2.22;;;1.83;;
21432;SDS011;18592;49.708;10.900;2022-09-03T13:54:44;2.88;;;1.80;;
21432;SDS011;18592;49.708;10.900;2022-09-03T13:57:01;2.30;;;2.10;;
21432;SDS011;18592;49.708;10.900;2022-09-03T13:59:07;1.85;;;1.75;;
21432;SDS011;18592;49.708;10.900;2022-09-03T14:03:49;1.90;;;1.80;;
21432;SDS011;18592;49.708;10.900;2022-09-03T14:06:04;1.90;;;1.60;;
21432;SDS011;18592;49.708;10.900;2022-09-03T14:08:17;3.58;;;2.10;;
21432;SDS011;18592;49.708;10.900;2022-09-03T14:10:38;3.72;;;2.10;;
21432;SDS011;18592;49.708;10.900;2022-09-03T14:15:42;2.97;;;2.00;;
21432;SDS011;18592;49.708;10.900;2022-09-03T14:18:01;2.17;;;1.98;;
21432;SDS011;18592;49.708;10.900;2022-09-03T14:22:47;2.08;;;1.85;;
21432;SDS011;18592;49.708;10.900;2022-09-03T14:27:28;2.70;;;2.15;;
21432;SDS011;18592;49.708;10.900;2022-09-03T14:29:32;2.40;;;2.00;;
21432;SDS011;18592;49.708;10.900;2022-09-03T14:36:27;2.10;;;1.90;;
21432;SDS011;18592;49.708;10.900;2022-09-03T14:38:40;2.17;;;1.98;;
21432;SDS011;18592;49.708;10.900;2022-09-03T14:40:55;3.38;;;1.90;;
21432;SDS011;18592;49.708;10.900;2022-09-03T14:50:01;1.90;;;1.70;;
21432;SDS011;18592;49.708;10.900;2022-09-03T15:03:41;2.42;;;2.17;;
21432;SDS011;18592;49.708;10.900;2022-09-03T15:11:18;12.27;;;2.77;;
21432;SDS011;18592;49.708;10.900;2022-09-03T15:13:23;5.35;;;2.25;;
21432;SDS011;18592;49.708;10.900;2022-09-03T15:15:32;4.50;;;2.05;;
21432;SDS011;18592;49.708;10.900;2022-09-03T15:24:52;2.20;;;2.00;;